F/V Kreiz Ar Mor — FGTS — position and weather

sailwx.info

Track history (hours):
 
Tides and Currents Weather Stations Pressure Air Temp Water Temp Dewpoint Dewpoint Depression Visibility Wind Speed Wind Dir Waves Ship Positions

F/V Kreiz Ar Mor

Last reported at 2017-Dec-18 03:00 UTC. Time now 2017-Dec-18 03:11 UTC.
Position N 48°37' W 004°37'.

Length 22 m.

Type: Fishing. MMSI: 227867000.

Date/timePositionNaut miles runAvg speedWind from/ knotsBaromVisibWave heightAir tempDewpointWater temp
2017-Dec-18 03:00N 48°37' W 004°37'2 3.9
2017-Dec-18 02:28N 48°36' W 004°34'0 0.0
2017-Dec-18 02:00N 48°36' W 004°34'0 0.0
2017-Dec-18 01:29N 48°36' W 004°34'0 0.0
2017-Dec-18 00:45N 48°36' W 004°34'0 0.0
2017-Dec-18 00:26N 48°36' W 004°34'0 0.0
2017-Dec-17 23:55N 48°36' W 004°34'0 0.0
2017-Dec-17 23:30N 48°36' W 004°34'0 0.0
2017-Dec-17 22:58N 48°36' W 004°34'0 0.0
2017-Dec-17 22:29N 48°36' W 004°34'0 0.0
2017-Dec-17 21:59N 48°36' W 004°34'0 0.0
2017-Dec-17 21:27N 48°36' W 004°34'0 0.0
2017-Dec-17 20:47N 48°36' W 004°34'0 0.0
2017-Dec-17 20:28N 48°36' W 004°34'0 0.0
2017-Dec-17 19:57N 48°36' W 004°34'0 0.0
2017-Dec-17 19:25N 48°36' W 004°34'0 0.0
2017-Dec-17 18:25N 48°36' W 004°34'0 0.0
2017-Dec-17 17:52N 48°36' W 004°34'0 0.0
2017-Dec-17 17:19N 48°36' W 004°34'0 0.0
2017-Dec-17 17:00N 48°36' W 004°34'1 2.0
2017-Dec-17 16:28N 48°37' W 004°35'4 8.1
2017-Dec-17 16:00N 48°39' W 004°40'4 6.9
2017-Dec-17 15:30N 48°42' W 004°41'1 1.1
2017-Dec-17 15:00N 48°42' W 004°41'1 1.7
2017-Dec-17 14:30N 48°43' W 004°41'1 2.3
2017-Dec-17 14:00N 48°41' W 004°41'1 1.6
2017-Dec-17 13:31N 48°41' W 004°41'1 1.5
2017-Dec-17 13:00N 48°40' W 004°40'3 6.4
2017-Dec-17 12:29N 48°43' W 004°42'4 7.4
2017-Dec-17 12:00N 48°43' W 004°37'2 3.3
2017-Dec-17 11:30N 48°43' W 004°34'1 1.7
2017-Dec-17 11:00N 48°44' W 004°34'1 1.4
2017-Dec-17 10:30N 48°45' W 004°35'1 1.5
2017-Dec-17 10:00N 48°46' W 004°35'3 6.1
2017-Dec-17 09:27N 48°44' W 004°30'2 4.0
2017-Dec-17 09:00N 48°45' W 004°28'2 3.7
2017-Dec-17 08:30N 48°47' W 004°28'1 1.9
2017-Dec-17 08:00N 48°46' W 004°28'1 1.5
2017-Dec-17 07:29N 48°45' W 004°28'1 1.3
2017-Dec-17 06:59N 48°44' W 004°27'1 1.7
2017-Dec-17 06:30N 48°44' W 004°27'3 4.7
2017-Dec-17 05:57N 48°46' W 004°24'1 2.5
2017-Dec-17 05:30N 48°47' W 004°24'1 1.9
2017-Dec-17 04:59N 48°46' W 004°24'1 1.2
2017-Dec-17 04:26N 48°45' W 004°24'1 2.0
2017-Dec-17 04:00N 48°44' W 004°24'3 5.4
2017-Dec-17 03:29N 48°43' W 004°28'510.6
2017-Dec-17 03:00N 48°41' W 004°34'4 8.9
2017-Dec-17 02:31N 48°37' W 004°39'3 6.5
2017-Dec-17 02:00N 48°36' W 004°34'0 0.2
2017-Dec-17 01:30N 48°36' W 004°34'0 0.0
2017-Dec-17 00:56N 48°36' W 004°34'0 0.0
2017-Dec-17 00:29N 48°36' W 004°34'0 0.0
2017-Dec-16 23:59N 48°36' W 004°34'0 0.0
2017-Dec-16 23:26N 48°36' W 004°34'0 0.0
2017-Dec-16 23:00N 48°36' W 004°34'0 0.0
2017-Dec-16 22:29N 48°36' W 004°34'0 0.0
2017-Dec-16 21:55N 48°36' W 004°34'0 0.0
2017-Dec-16 21:31N 48°36' W 004°34'0 0.0
2017-Dec-16 21:00N 48°36' W 004°34'0 0.0
2017-Dec-16 20:11N 48°36' W 004°34'0 0.1
2017-Dec-16 20:00N 48°36' W 004°34'0 0.0
2017-Dec-16 19:25N 48°36' W 004°34'2 5.6
2017-Dec-16 19:00N 48°37' W 004°37'4 7.2
2017-Dec-16 18:31N 48°40' W 004°40'3 6.3
2017-Dec-16 18:00N 48°43' W 004°40'4 8.1
2017-Dec-16 17:29N 48°44' W 004°33'2 4.3
2017-Dec-16 17:00N 48°44' W 004°30'1 2.0
2017-Dec-16 16:30N 48°45' W 004°31'1 1.6
2017-Dec-16 15:59N 48°44' W 004°30'1 2.2
2017-Dec-16 15:31N 48°45' W 004°31'1 1.5
2017-Dec-16 15:01N 48°46' W 004°31'1 1.4
2017-Dec-16 14:29N 48°47' W 004°31'3 6.2
2017-Dec-16 14:00N 48°44' W 004°30'3 5.5
2017-Dec-16 13:30N 48°44' W 004°34'1 1.4
2017-Dec-16 12:54N 48°45' W 004°34'1 1.3
2017-Dec-16 12:30N 48°45' W 004°34'1 2.0
2017-Dec-16 12:01N 48°44' W 004°34'1 1.3
2017-Dec-16 11:29N 48°43' W 004°34'0 0.9
2017-Dec-16 11:00N 48°42' W 004°34'1 1.5
2017-Dec-16 10:31N 48°42' W 004°34'3 6.7
2017-Dec-16 10:00N 48°43' W 004°29'3 6.2
2017-Dec-16 09:28N 48°46' W 004°28'1 1.1
2017-Dec-16 09:00N 48°47' W 004°28'1 1.7
2017-Dec-16 08:30N 48°46' W 004°28'1 1.5
2017-Dec-16 08:01N 48°45' W 004°28'0 0.8
2017-Dec-16 07:30N 48°45' W 004°27'1 1.7
2017-Dec-16 07:00N 48°44' W 004°27'2 3.6
2017-Dec-16 06:23N 48°44' W 004°24'3 7.3
2017-Dec-16 06:00N 48°47' W 004°24'1 1.9
2017-Dec-16 05:30N 48°46' W 004°24'1 1.8
2017-Dec-16 04:59N 48°47' W 004°24'1 2.6
2017-Dec-16 04:30N 48°46' W 004°24'1 1.4
2017-Dec-16 03:57N 48°45' W 004°24'1 1.7
2017-Dec-16 03:30N 48°44' W 004°23'1 2.6
2017-Dec-16 03:00N 48°44' W 004°21'5 6.3
2017-Dec-16 02:13N 48°45' W 004°14'2 6.4
2017-Dec-16 01:54N 48°46' W 004°11'  
2017-Dec-13 14:01N 48°45' W 004°19'1 9.7
2017-Dec-13 13:56N 48°44' W 004°20'3 6.0
2017-Dec-13 13:30N 48°45' W 004°24'0 0.6
2017-Dec-13 13:00N 48°45' W 004°24'1 1.8
2017-Dec-13 12:30N 48°44' W 004°23'3 4.6
2017-Dec-13 11:53N 48°45' W 004°27'2 4.7
2017-Dec-13 11:30N 48°47' W 004°28'1 1.8
2017-Dec-13 10:59N 48°46' W 004°28'1 1.9
2017-Dec-13 10:27N 48°45' W 004°27'1 1.6
2017-Dec-13 10:00N 48°44' W 004°27'1 1.5
2017-Dec-13 09:30N 48°44' W 004°26'3 6.2
2017-Dec-13 09:00N 48°45' W 004°31'1 2.4
2017-Dec-13 08:29N 48°46' W 004°31'1 1.9
2017-Dec-13 07:57N 48°45' W 004°31'2 3.2
2017-Dec-13 07:26N 48°44' W 004°30'1 1.5
2017-Dec-13 06:53N 48°44' W 004°30'0 0.8
2017-Dec-13 06:28N 48°44' W 004°30'1 3.1
2017-Dec-13 06:00N 48°43' W 004°31'2 3.7
2017-Dec-13 05:30N 48°43' W 004°34'0 0.2
2017-Dec-13 05:00N 48°43' W 004°34'1 2.0
2017-Dec-13 04:30N 48°44' W 004°34'1 2.2
2017-Dec-13 04:01N 48°43' W 004°34'1 1.6
2017-Dec-13 03:30N 48°42' W 004°34'1 1.8
2017-Dec-13 03:01N 48°42' W 004°33'4 8.1
2017-Dec-13 02:30N 48°39' W 004°38'3 5.3
2017-Dec-13 02:00N 48°37' W 004°36'2 3.2
2017-Dec-13 01:29N 48°36' W 004°34'0 0.0
2017-Dec-13 01:00N 48°36' W 004°34'0 0.0
2017-Dec-13 00:30N 48°36' W 004°34'0 0.0
2017-Dec-13 00:00N 48°36' W 004°34'0 0.0
2017-Dec-12 23:30N 48°36' W 004°34'0 0.0
2017-Dec-12 22:59N 48°36' W 004°34'0 0.0
2017-Dec-12 22:29N 48°36' W 004°34'0 0.0
2017-Dec-12 22:00N 48°36' W 004°34'0 0.0
2017-Dec-12 21:29N 48°36' W 004°34'0 0.0
2017-Dec-12 20:59N 48°36' W 004°34'0 0.0
2017-Dec-12 20:30N 48°36' W 004°34'0 0.1
2017-Dec-12 16:48N 48°36' W 004°34'2 7.6
2017-Dec-12 16:30N 48°37' W 004°38'2 4.8
2017-Dec-12 16:00N 48°39' W 004°36'6 8.8
2017-Dec-12 15:19N 48°43' W 004°29'2 6.0
2017-Dec-12 14:59N 48°45' W 004°27'0 0.4
2017-Dec-12 13:38N 48°45' W 004°27'0 1.2
2017-Dec-12 13:30N 48°45' W 004°27'1 1.8
2017-Dec-12 12:42N 48°44' W 004°26'2 6.5
2017-Dec-12 12:24N 48°44' W 004°23'2 1.0
2017-Dec-12 10:53N 48°46' W 004°24'1 1.7
2017-Dec-12 10:14N 48°44' W 004°23'2 6.2
2017-Dec-12 09:57N 48°44' W 004°26'3 6.5
2017-Dec-12 09:28N 48°44' W 004°31'1 1.9
2017-Dec-12 09:00N 48°45' W 004°31'1 1.9
2017-Dec-12 08:29N 48°46' W 004°31'1 1.7
2017-Dec-12 07:54N 48°45' W 004°31'0 1.1
2017-Dec-12 07:29N 48°45' W 004°31'1 2.1
2017-Dec-12 07:01N 48°44' W 004°30'2 4.9
2017-Dec-12 06:30N 48°42' W 004°32'3 5.5
2017-Dec-12 06:00N 48°44' W 004°34'0 0.5
2017-Dec-12 05:30N 48°44' W 004°34'1 1.8
2017-Dec-12 05:00N 48°45' W 004°34'1 2.7
2017-Dec-12 04:31N 48°44' W 004°34'0 0.6
2017-Dec-12 04:01N 48°43' W 004°34'1 1.6
2017-Dec-12 03:31N 48°43' W 004°34'1 1.6
2017-Dec-12 03:00N 48°42' W 004°34'4 7.6
2017-Dec-12 02:30N 48°39' W 004°38'3 5.2
2017-Dec-12 02:00N 48°37' W 004°36'2 1.0
2017-Dec-12 00:27N 48°36' W 004°34'0 0.0
2017-Dec-12 00:00N 48°36' W 004°34'0 0.0
2017-Dec-11 22:43N 48°36' W 004°34'0 0.0
2017-Dec-11 22:15N 48°36' W 004°34'0 0.0
2017-Dec-11 16:35N 48°36' W 004°34'0 0.0
2017-Dec-11 16:27N 48°36' W 004°34'0 0.0
2017-Dec-11 15:59N 48°36' W 004°34'0 0.0
2017-Dec-11 15:20N 48°36' W 004°34'0 0.6
2017-Dec-11 14:52N 48°36' W 004°34'3 7.2
2017-Dec-11 14:31N 48°37' W 004°38'3 6.5
2017-Dec-11 13:58N 48°40' W 004°35'3 7.0
2017-Dec-11 13:30N 48°44' W 004°34'0 0.6
2017-Dec-11 13:01N 48°43' W 004°34'1 1.4
2017-Dec-11 12:30N 48°43' W 004°33'0 0.7
2017-Dec-11 12:00N 48°42' W 004°33'3 5.6
2017-Dec-11 11:29N 48°45' W 004°31'2 4.7
2017-Dec-11 11:00N 48°47' W 004°31'1 1.4
2017-Dec-11 10:23N 48°46' W 004°31'1 1.4
2017-Dec-11 09:58N 48°45' W 004°31'0 0.8
2017-Dec-11 09:30N 48°45' W 004°31'1 1.3
2017-Dec-11 09:00N 48°44' W 004°30'1 1.0
2017-Dec-11 08:30N 48°44' W 004°30'2 4.1
2017-Dec-11 07:58N 48°44' W 004°27'3 6.8
2017-Dec-11 07:29N 48°47' W 004°28'0 0.8
2017-Dec-11 06:59N 48°47' W 004°27'1 1.5
2017-Dec-11 06:29N 48°46' W 004°27'1 1.3
2017-Dec-11 06:00N 48°45' W 004°27'1 1.2
2017-Dec-11 05:31N 48°45' W 004°27'1 1.5
2017-Dec-11 05:01N 48°44' W 004°26'2 2.9
2017-Dec-11 04:25N 48°44' W 004°24'2 5.9
2017-Dec-11 04:00N 48°47' W 004°24'0 0.5
2017-Dec-11 03:30N 48°47' W 004°24'1 0.8
2017-Dec-11 02:48N 48°46' W 004°24'0 1.6
2017-Dec-11 02:30N 48°46' W 004°24'1 1.3
2017-Dec-11 02:00N 48°45' W 004°23'1 1.7
2017-Dec-11 01:27N 48°44' W 004°23'2 4.0
2017-Dec-11 00:51N 48°43' W 004°26'3 8.2
2017-Dec-11 00:30N 48°43' W 004°30'4 8.5
2017-Dec-11 00:00N 48°41' W 004°36'4 7.4
2017-Dec-10 23:30N 48°38' W 004°39'4 7.9
2017-Dec-10 23:00N 48°36' W 004°34'0 0.0
2017-Dec-10 22:31N 48°36' W 004°34'0 0.0
2017-Dec-10 21:59N 48°36' W 004°34'0 0.0
2017-Dec-10 21:29N 48°36' W 004°34'0 0.0
2017-Dec-10 20:58N 48°36' W 004°34'0 0.0
2017-Dec-10 20:26N 48°36' W 004°34'0 0.0
2017-Dec-10 19:58N 48°36' W 004°34'0 0.0
2017-Dec-10 19:30N 48°36' W 004°34'0 0.0
2017-Dec-10 18:59N 48°36' W 004°34'0 0.0
2017-Dec-10 18:26N 48°36' W 004°34'0 0.0
2017-Dec-10 18:00N 48°36' W 004°34'0 0.0
2017-Dec-10 17:25N 48°36' W 004°34'0 0.0
2017-Dec-10 16:56N 48°36' W 004°34'0 0.0
2017-Dec-10 16:30N 48°36' W 004°34'0 0.0
2017-Dec-10 15:57N 48°36' W 004°34'0 0.0
2017-Dec-10 15:27N 48°36' W 004°34'0 0.0
2017-Dec-10 15:00N 48°36' W 004°34'0 0.0
2017-Dec-10 14:30N 48°36' W 004°34'0 0.0
2017-Dec-10 13:58N 48°36' W 004°34'0 0.0
2017-Dec-10 13:30N 48°36' W 004°34'0 0.0
2017-Dec-10 13:00N 48°36' W 004°34'0 0.0
2017-Dec-10 12:28N 48°36' W 004°34'0 0.0
2017-Dec-10 11:57N 48°36' W 004°34'0 0.0
2017-Dec-10 11:30N 48°36' W 004°34'0 0.0
2017-Dec-10 11:00N 48°36' W 004°34'0 0.0
2017-Dec-10 10:28N 48°36' W 004°34'0 0.0
2017-Dec-10 09:57N 48°36' W 004°34'0 0.0
2017-Dec-10 09:30N 48°36' W 004°34'0 0.0
2017-Dec-10 08:56N 48°36' W 004°34'0 0.0
2017-Dec-10 08:30N 48°36' W 004°34'0 0.0
2017-Dec-10 08:01N 48°36' W 004°34'0 0.0
2017-Dec-10 07:30N 48°36' W 004°34'0 0.0
2017-Dec-10 06:59N 48°36' W 004°34'0 0.0
2017-Dec-10 06:29N 48°36' W 004°34'0 0.0
2017-Dec-10 06:00N 48°36' W 004°34'0 0.0
2017-Dec-10 05:28N 48°36' W 004°34'0 0.0
2017-Dec-10 04:48N 48°36' W 004°34'0 0.0
2017-Dec-10 04:29N 48°36' W 004°34'0 0.0
2017-Dec-10 03:54N 48°36' W 004°34'0 0.0
2017-Dec-10 03:30N 48°36' W 004°34'0 0.0
2017-Dec-10 02:59N 48°36' W 004°34'0 0.0
2017-Dec-10 02:28N 48°36' W 004°34'0 0.0
2017-Dec-10 02:00N 48°36' W 004°34'0 0.0
2017-Dec-10 01:29N 48°36' W 004°34'0 0.0
2017-Dec-10 00:57N 48°36' W 004°34'0 0.0
2017-Dec-10 00:29N 48°36' W 004°34'0 0.0
2017-Dec-09 23:58N 48°36' W 004°34'0 0.0
2017-Dec-09 23:28N 48°36' W 004°34'0 0.0
2017-Dec-09 22:52N 48°36' W 004°34'0 0.0
2017-Dec-09 22:12N 48°36' W 004°34'0 0.0
2017-Dec-09 21:59N 48°36' W 004°34'0 0.0
2017-Dec-09 21:27N 48°36' W 004°34'0 0.0
2017-Dec-09 21:00N 48°36' W 004°34'0 0.0
2017-Dec-09 20:29N 48°36' W 004°34'0 0.0
2017-Dec-09 20:00N 48°36' W 004°34'0 0.0
2017-Dec-09 19:26N 48°36' W 004°34'0 0.0
2017-Dec-09 18:54N 48°36' W 004°34'0 0.0
2017-Dec-09 18:30N 48°36' W 004°34'0 0.0
2017-Dec-09 17:58N 48°36' W 004°34'0 0.0
2017-Dec-09 17:28N 48°36' W 004°34'0 0.0
2017-Dec-09 16:50N 48°36' W 004°34'0 0.0
2017-Dec-09 16:29N 48°36' W 004°34'0 0.0
2017-Dec-09 15:56N 48°36' W 004°34'0 0.2
2017-Dec-09 15:29N 48°36' W 004°34'4 7.8
2017-Dec-09 15:01N 48°38' W 004°39'5 9.2
2017-Dec-09 14:30N 48°42' W 004°37'3 6.7
2017-Dec-09 14:00N 48°45' W 004°34'3 6.1
2017-Dec-09 13:30N 48°42' W 004°34'1 1.1
2017-Dec-09 13:00N 48°42' W 004°33'3 5.5
2017-Dec-09 12:30N 48°44' W 004°30'3 6.4
2017-Dec-09 12:00N 48°47' W 004°31'1 1.1
2017-Dec-09 11:30N 48°47' W 004°32'3 5.6
2017-Dec-09 11:00N 48°47' W 004°28'3 6.2
2017-Dec-09 10:30N 48°44' W 004°26'2 4.6
2017-Dec-09 09:59N 48°45' W 004°23'3 5.9
2017-Dec-09 09:30N 48°48' W 004°25'2 3.4
2017-Dec-09 08:59N 48°49' W 004°27'4 3.8
2017-Dec-09 08:03N 48°46' W 004°24'0 3.4
2017-Dec-09 07:56N 48°45' W 004°23'1 3.4
2017-Dec-09 07:31N 48°44' W 004°22'3 6.0
2017-Dec-09 07:01N 48°45' W 004°26'4 6.5
2017-Dec-09 06:22N 48°46' W 004°32'2 6.0
2017-Dec-09 05:59N 48°47' W 004°35'1 1.1
2017-Dec-09 05:30N 48°47' W 004°36'2 4.7
2017-Dec-09 04:59N 48°45' W 004°34'2 4.6
2017-Dec-09 04:29N 48°44' W 004°37'4 7.7
2017-Dec-09 04:00N 48°43' W 004°42'4 7.3
2017-Dec-09 03:30N 48°41' W 004°47'4 7.0
2017-Dec-09 03:00N 48°38' W 004°50'3 6.9
2017-Dec-09 02:30N 48°35' W 004°52'3 6.8
2017-Dec-09 02:00N 48°31' W 004°53'4 7.6
2017-Dec-09 01:31N 48°28' W 004°51'4 7.4
2017-Dec-09 01:00N 48°24' W 004°49'3 6.6
2017-Dec-09 00:30N 48°21' W 004°48'3 6.6
2017-Dec-09 00:00N 48°18' W 004°46'4 7.6
2017-Dec-08 23:31N 48°14' W 004°46'4 7.0
2017-Dec-08 23:01N 48°11' W 004°43'4 8.0
2017-Dec-08 22:31N 48°08' W 004°38'4 7.9
2017-Dec-08 22:01N 48°08' W 004°33'4 8.3
2017-Dec-08 21:30N 48°08' W 004°26'4 7.6
2017-Dec-08 21:00N 48°07' W 004°21'1 2.9
2017-Dec-08 20:31N 48°06' W 004°20'0 0.0
2017-Dec-08 20:00N 48°06' W 004°20'0 0.0
2017-Dec-08 19:30N 48°06' W 004°20'0 0.0
2017-Dec-08 19:00N 48°06' W 004°20'0 0.1
2017-Dec-08 18:30N 48°06' W 004°20'0 0.0
2017-Dec-08 18:00N 48°06' W 004°20'0 0.0
2017-Dec-08 17:30N 48°06' W 004°20'0 0.0
2017-Dec-08 17:00N 48°06' W 004°20'  
Track history (hours):
 
Tides and Currents Weather Stations Pressure Air Temp Water Temp Dewpoint Dewpoint Depression Visibility Wind Speed Wind Dir Waves Ship Positions

F/V Kreiz Ar Mor

Last reported at 2017-Dec-18 03:00 UTC. Time now 2017-Dec-18 03:11 UTC.
Position N 48°37' W 004°37'.

Length 22 m.

Type: Fishing. MMSI: 227867000.

Date/timePositionNaut miles runAvg speedWind from/ knotsBaromVisibWave heightAir tempDewpointWater temp
2017-Dec-18 03:00N 48°37' W 004°37'2 3.9
2017-Dec-18 02:28N 48°36' W 004°34'0 0.0
2017-Dec-18 02:00N 48°36' W 004°34'0 0.0
2017-Dec-18 01:29N 48°36' W 004°34'0 0.0
2017-Dec-18 00:45N 48°36' W 004°34'0 0.0
2017-Dec-18 00:26N 48°36' W 004°34'0 0.0
2017-Dec-17 23:55N 48°36' W 004°34'0 0.0
2017-Dec-17 23:30N 48°36' W 004°34'0 0.0
2017-Dec-17 22:58N 48°36' W 004°34'0 0.0
2017-Dec-17 22:29N 48°36' W 004°34'0 0.0
2017-Dec-17 21:59N 48°36' W 004°34'0 0.0
2017-Dec-17 21:27N 48°36' W 004°34'0 0.0
2017-Dec-17 20:47N 48°36' W 004°34'0 0.0
2017-Dec-17 20:28N 48°36' W 004°34'0 0.0
2017-Dec-17 19:57N 48°36' W 004°34'0 0.0
2017-Dec-17 19:25N 48°36' W 004°34'0 0.0
2017-Dec-17 18:25N 48°36' W 004°34'0 0.0
2017-Dec-17 17:52N 48°36' W 004°34'0 0.0
2017-Dec-17 17:19N 48°36' W 004°34'0 0.0
2017-Dec-17 17:00N 48°36' W 004°34'1 2.0
2017-Dec-17 16:28N 48°37' W 004°35'4 8.1
2017-Dec-17 16:00N 48°39' W 004°40'4 6.9
2017-Dec-17 15:30N 48°42' W 004°41'1 1.1
2017-Dec-17 15:00N 48°42' W 004°41'1 1.7
2017-Dec-17 14:30N 48°43' W 004°41'1 2.3
2017-Dec-17 14:00N 48°41' W 004°41'1 1.6
2017-Dec-17 13:31N 48°41' W 004°41'1 1.5
2017-Dec-17 13:00N 48°40' W 004°40'3 6.4
2017-Dec-17 12:29N 48°43' W 004°42'4 7.4
2017-Dec-17 12:00N 48°43' W 004°37'2 3.3
2017-Dec-17 11:30N 48°43' W 004°34'1 1.7
2017-Dec-17 11:00N 48°44' W 004°34'1 1.4
2017-Dec-17 10:30N 48°45' W 004°35'1 1.5
2017-Dec-17 10:00N 48°46' W 004°35'3 6.1
2017-Dec-17 09:27N 48°44' W 004°30'2 4.0
2017-Dec-17 09:00N 48°45' W 004°28'2 3.7
2017-Dec-17 08:30N 48°47' W 004°28'1 1.9
2017-Dec-17 08:00N 48°46' W 004°28'1 1.5
2017-Dec-17 07:29N 48°45' W 004°28'1 1.3
2017-Dec-17 06:59N 48°44' W 004°27'1 1.7
2017-Dec-17 06:30N 48°44' W 004°27'3 4.7
2017-Dec-17 05:57N 48°46' W 004°24'1 2.5
2017-Dec-17 05:30N 48°47' W 004°24'1 1.9
2017-Dec-17 04:59N 48°46' W 004°24'1 1.2
2017-Dec-17 04:26N 48°45' W 004°24'1 2.0
2017-Dec-17 04:00N 48°44' W 004°24'3 5.4
2017-Dec-17 03:29N 48°43' W 004°28'510.6
2017-Dec-17 03:00N 48°41' W 004°34'4 8.9
2017-Dec-17 02:31N 48°37' W 004°39'3 6.5
2017-Dec-17 02:00N 48°36' W 004°34'0 0.2
2017-Dec-17 01:30N 48°36' W 004°34'0 0.0
2017-Dec-17 00:56N 48°36' W 004°34'0 0.0
2017-Dec-17 00:29N 48°36' W 004°34'0 0.0
2017-Dec-16 23:59N 48°36' W 004°34'0 0.0
2017-Dec-16 23:26N 48°36' W 004°34'0 0.0
2017-Dec-16 23:00N 48°36' W 004°34'0 0.0
2017-Dec-16 22:29N 48°36' W 004°34'0 0.0
2017-Dec-16 21:55N 48°36' W 004°34'0 0.0
2017-Dec-16 21:31N 48°36' W 004°34'0 0.0
2017-Dec-16 21:00N 48°36' W 004°34'0 0.0
2017-Dec-16 20:11N 48°36' W 004°34'0 0.1
2017-Dec-16 20:00N 48°36' W 004°34'0 0.0
2017-Dec-16 19:25N 48°36' W 004°34'2 5.6
2017-Dec-16 19:00N 48°37' W 004°37'4 7.2
2017-Dec-16 18:31N 48°40' W 004°40'3 6.3
2017-Dec-16 18:00N 48°43' W 004°40'4 8.1
2017-Dec-16 17:29N 48°44' W 004°33'2 4.3
2017-Dec-16 17:00N 48°44' W 004°30'1 2.0
2017-Dec-16 16:30N 48°45' W 004°31'1 1.6
2017-Dec-16 15:59N 48°44' W 004°30'1 2.2
2017-Dec-16 15:31N 48°45' W 004°31'1 1.5
2017-Dec-16 15:01N 48°46' W 004°31'1 1.4
2017-Dec-16 14:29N 48°47' W 004°31'3 6.2
2017-Dec-16 14:00N 48°44' W 004°30'3 5.5
2017-Dec-16 13:30N 48°44' W 004°34'1 1.4
2017-Dec-16 12:54N 48°45' W 004°34'1 1.3
2017-Dec-16 12:30N 48°45' W 004°34'1 2.0
2017-Dec-16 12:01N 48°44' W 004°34'1 1.3
2017-Dec-16 11:29N 48°43' W 004°34'0 0.9
2017-Dec-16 11:00N 48°42' W 004°34'1 1.5
2017-Dec-16 10:31N 48°42' W 004°34'3 6.7
2017-Dec-16 10:00N 48°43' W 004°29'3 6.2
2017-Dec-16 09:28N 48°46' W 004°28'1 1.1
2017-Dec-16 09:00N 48°47' W 004°28'1 1.7
2017-Dec-16 08:30N 48°46' W 004°28'1 1.5
2017-Dec-16 08:01N 48°45' W 004°28'0 0.8
2017-Dec-16 07:30N 48°45' W 004°27'1 1.7
2017-Dec-16 07:00N 48°44' W 004°27'2 3.6
2017-Dec-16 06:23N 48°44' W 004°24'3 7.3
2017-Dec-16 06:00N 48°47' W 004°24'1 1.9
2017-Dec-16 05:30N 48°46' W 004°24'1 1.8
2017-Dec-16 04:59N 48°47' W 004°24'1 2.6
2017-Dec-16 04:30N 48°46' W 004°24'1 1.4
2017-Dec-16 03:57N 48°45' W 004°24'1 1.7
2017-Dec-16 03:30N 48°44' W 004°23'1 2.6
2017-Dec-16 03:00N 48°44' W 004°21'5 6.3
2017-Dec-16 02:13N 48°45' W 004°14'2 6.4
2017-Dec-16 01:54N 48°46' W 004°11'  
2017-Dec-13 14:01N 48°45' W 004°19'1 9.7
2017-Dec-13 13:56N 48°44' W 004°20'3 6.0
2017-Dec-13 13:30N 48°45' W 004°24'0 0.6
2017-Dec-13 13:00N 48°45' W 004°24'1 1.8
2017-Dec-13 12:30N 48°44' W 004°23'3 4.6
2017-Dec-13 11:53N 48°45' W 004°27'2 4.7
2017-Dec-13 11:30N 48°47' W 004°28'1 1.8
2017-Dec-13 10:59N 48°46' W 004°28'1 1.9
2017-Dec-13 10:27N 48°45' W 004°27'1 1.6
2017-Dec-13 10:00N 48°44' W 004°27'1 1.5
2017-Dec-13 09:30N 48°44' W 004°26'3 6.2
2017-Dec-13 09:00N 48°45' W 004°31'1 2.4
2017-Dec-13 08:29N 48°46' W 004°31'1 1.9
2017-Dec-13 07:57N 48°45' W 004°31'2 3.2
2017-Dec-13 07:26N 48°44' W 004°30'1 1.5
2017-Dec-13 06:53N 48°44' W 004°30'0 0.8
2017-Dec-13 06:28N 48°44' W 004°30'1 3.1
2017-Dec-13 06:00N 48°43' W 004°31'2 3.7
2017-Dec-13 05:30N 48°43' W 004°34'0 0.2
2017-Dec-13 05:00N 48°43' W 004°34'1 2.0
2017-Dec-13 04:30N 48°44' W 004°34'1 2.2
2017-Dec-13 04:01N 48°43' W 004°34'1 1.6
2017-Dec-13 03:30N 48°42' W 004°34'1 1.8
2017-Dec-13 03:01N 48°42' W 004°33'4 8.1
2017-Dec-13 02:30N 48°39' W 004°38'3 5.3
2017-Dec-13 02:00N 48°37' W 004°36'2 3.2
2017-Dec-13 01:29N 48°36' W 004°34'0 0.0
2017-Dec-13 01:00N 48°36' W 004°34'0 0.0
2017-Dec-13 00:30N 48°36' W 004°34'0 0.0
2017-Dec-13 00:00N 48°36' W 004°34'0 0.0
2017-Dec-12 23:30N 48°36' W 004°34'0 0.0
2017-Dec-12 22:59N 48°36' W 004°34'0 0.0
2017-Dec-12 22:29N 48°36' W 004°34'0 0.0
2017-Dec-12 22:00N 48°36' W 004°34'0 0.0
2017-Dec-12 21:29N 48°36' W 004°34'0 0.0
2017-Dec-12 20:59N 48°36' W 004°34'0 0.0
2017-Dec-12 20:30N 48°36' W 004°34'0 0.1
2017-Dec-12 16:48N 48°36' W 004°34'2 7.6
2017-Dec-12 16:30N 48°37' W 004°38'2 4.8
2017-Dec-12 16:00N 48°39' W 004°36'6 8.8
2017-Dec-12 15:19N 48°43' W 004°29'2 6.0
2017-Dec-12 14:59N 48°45' W 004°27'0 0.4
2017-Dec-12 13:38N 48°45' W 004°27'0 1.2
2017-Dec-12 13:30N 48°45' W 004°27'1 1.8
2017-Dec-12 12:42N 48°44' W 004°26'2 6.5
2017-Dec-12 12:24N 48°44' W 004°23'2 1.0
2017-Dec-12 10:53N 48°46' W 004°24'1 1.7
2017-Dec-12 10:14N 48°44' W 004°23'2 6.2
2017-Dec-12 09:57N 48°44' W 004°26'3 6.5
2017-Dec-12 09:28N 48°44' W 004°31'1 1.9
2017-Dec-12 09:00N 48°45' W 004°31'1 1.9
2017-Dec-12 08:29N 48°46' W 004°31'1 1.7
2017-Dec-12 07:54N 48°45' W 004°31'0 1.1
2017-Dec-12 07:29N 48°45' W 004°31'1 2.1
2017-Dec-12 07:01N 48°44' W 004°30'2 4.9
2017-Dec-12 06:30N 48°42' W 004°32'3 5.5
2017-Dec-12 06:00N 48°44' W 004°34'0 0.5
2017-Dec-12 05:30N 48°44' W 004°34'1 1.8
2017-Dec-12 05:00N 48°45' W 004°34'1 2.7
2017-Dec-12 04:31N 48°44' W 004°34'0 0.6
2017-Dec-12 04:01N 48°43' W 004°34'1 1.6
2017-Dec-12 03:31N 48°43' W 004°34'1 1.6
2017-Dec-12 03:00N 48°42' W 004°34'4 7.6
2017-Dec-12 02:30N 48°39' W 004°38'3 5.2
2017-Dec-12 02:00N 48°37' W 004°36'2 1.0
2017-Dec-12 00:27N 48°36' W 004°34'0 0.0
2017-Dec-12 00:00N 48°36' W 004°34'0 0.0
2017-Dec-11 22:43N 48°36' W 004°34'0 0.0
2017-Dec-11 22:15N 48°36' W 004°34'0 0.0
2017-Dec-11 16:35N 48°36' W 004°34'0 0.0
2017-Dec-11 16:27N 48°36' W 004°34'0 0.0
2017-Dec-11 15:59N 48°36' W 004°34'0 0.0
2017-Dec-11 15:20N 48°36' W 004°34'0 0.6
2017-Dec-11 14:52N 48°36' W 004°34'3 7.2
2017-Dec-11 14:31N 48°37' W 004°38'3 6.5
2017-Dec-11 13:58N 48°40' W 004°35'3 7.0
2017-Dec-11 13:30N 48°44' W 004°34'0 0.6
2017-Dec-11 13:01N 48°43' W 004°34'1 1.4
2017-Dec-11 12:30N 48°43' W 004°33'0 0.7
2017-Dec-11 12:00N 48°42' W 004°33'3 5.6
2017-Dec-11 11:29N 48°45' W 004°31'2 4.7
2017-Dec-11 11:00N 48°47' W 004°31'1 1.4
2017-Dec-11 10:23N 48°46' W 004°31'1 1.4
2017-Dec-11 09:58N 48°45' W 004°31'0 0.8
2017-Dec-11 09:30N 48°45' W 004°31'1 1.3
2017-Dec-11 09:00N 48°44' W 004°30'1 1.0
2017-Dec-11 08:30N 48°44' W 004°30'2 4.1
2017-Dec-11 07:58N 48°44' W 004°27'3 6.8
2017-Dec-11 07:29N 48°47' W 004°28'0 0.8
2017-Dec-11 06:59N 48°47' W 004°27'1 1.5
2017-Dec-11 06:29N 48°46' W 004°27'1 1.3
2017-Dec-11 06:00N 48°45' W 004°27'1 1.2
2017-Dec-11 05:31N 48°45' W 004°27'1 1.5
2017-Dec-11 05:01N 48°44' W 004°26'2 2.9
2017-Dec-11 04:25N 48°44' W 004°24'2 5.9
2017-Dec-11 04:00N 48°47' W 004°24'0 0.5
2017-Dec-11 03:30N 48°47' W 004°24'1 0.8
2017-Dec-11 02:48N 48°46' W 004°24'0 1.6
2017-Dec-11 02:30N 48°46' W 004°24'1 1.3
2017-Dec-11 02:00N 48°45' W 004°23'1 1.7
2017-Dec-11 01:27N 48°44' W 004°23'2 4.0
2017-Dec-11 00:51N 48°43' W 004°26'3 8.2
2017-Dec-11 00:30N 48°43' W 004°30'4 8.5
2017-Dec-11 00:00N 48°41' W 004°36'4 7.4
2017-Dec-10 23:30N 48°38' W 004°39'4 7.9
2017-Dec-10 23:00N 48°36' W 004°34'0 0.0
2017-Dec-10 22:31N 48°36' W 004°34'0 0.0
2017-Dec-10 21:59N 48°36' W 004°34'0 0.0
2017-Dec-10 21:29N 48°36' W 004°34'0 0.0
2017-Dec-10 20:58N 48°36' W 004°34'0 0.0
2017-Dec-10 20:26N 48°36' W 004°34'0 0.0
2017-Dec-10 19:58N 48°36' W 004°34'0 0.0
2017-Dec-10 19:30N 48°36' W 004°34'0 0.0
2017-Dec-10 18:59N 48°36' W 004°34'0 0.0
2017-Dec-10 18:26N 48°36' W 004°34'0 0.0
2017-Dec-10 18:00N 48°36' W 004°34'0 0.0
2017-Dec-10 17:25N 48°36' W 004°34'0 0.0
2017-Dec-10 16:56N 48°36' W 004°34'0 0.0
2017-Dec-10 16:30N 48°36' W 004°34'0 0.0
2017-Dec-10 15:57N 48°36' W 004°34'0 0.0
2017-Dec-10 15:27N 48°36' W 004°34'0 0.0
2017-Dec-10 15:00N 48°36' W 004°34'0 0.0
2017-Dec-10 14:30N 48°36' W 004°34'0 0.0
2017-Dec-10 13:58N 48°36' W 004°34'0 0.0
2017-Dec-10 13:30N 48°36' W 004°34'0 0.0
2017-Dec-10 13:00N 48°36' W 004°34'0 0.0
2017-Dec-10 12:28N 48°36' W 004°34'0 0.0
2017-Dec-10 11:57N 48°36' W 004°34'0 0.0
2017-Dec-10 11:30N 48°36' W 004°34'0 0.0
2017-Dec-10 11:00N 48°36' W 004°34'0 0.0
2017-Dec-10 10:28N 48°36' W 004°34'0 0.0
2017-Dec-10 09:57N 48°36' W 004°34'0 0.0
2017-Dec-10 09:30N 48°36' W 004°34'0 0.0
2017-Dec-10 08:56N 48°36' W 004°34'0 0.0
2017-Dec-10 08:30N 48°36' W 004°34'0 0.0
2017-Dec-10 08:01N 48°36' W 004°34'0 0.0
2017-Dec-10 07:30N 48°36' W 004°34'0 0.0
2017-Dec-10 06:59N 48°36' W 004°34'0 0.0
2017-Dec-10 06:29N 48°36' W 004°34'0 0.0
2017-Dec-10 06:00N 48°36' W 004°34'0 0.0
2017-Dec-10 05:28N 48°36' W 004°34'0 0.0
2017-Dec-10 04:48N 48°36' W 004°34'0 0.0
2017-Dec-10 04:29N 48°36' W 004°34'0 0.0
2017-Dec-10 03:54N 48°36' W 004°34'0 0.0
2017-Dec-10 03:30N 48°36' W 004°34'0 0.0
2017-Dec-10 02:59N 48°36' W 004°34'0 0.0
2017-Dec-10 02:28N 48°36' W 004°34'0 0.0
2017-Dec-10 02:00N 48°36' W 004°34'0 0.0
2017-Dec-10 01:29N 48°36' W 004°34'0 0.0
2017-Dec-10 00:57N 48°36' W 004°34'0 0.0
2017-Dec-10 00:29N 48°36' W 004°34'0 0.0
2017-Dec-09 23:58N 48°36' W 004°34'0 0.0
2017-Dec-09 23:28N 48°36' W 004°34'0 0.0
2017-Dec-09 22:52N 48°36' W 004°34'0 0.0
2017-Dec-09 22:12N 48°36' W 004°34'0 0.0
2017-Dec-09 21:59N 48°36' W 004°34'0 0.0
2017-Dec-09 21:27N 48°36' W 004°34'0 0.0
2017-Dec-09 21:00N 48°36' W 004°34'0 0.0
2017-Dec-09 20:29N 48°36' W 004°34'0 0.0
2017-Dec-09 20:00N 48°36' W 004°34'0 0.0
2017-Dec-09 19:26N 48°36' W 004°34'0 0.0
2017-Dec-09 18:54N 48°36' W 004°34'0 0.0
2017-Dec-09 18:30N 48°36' W 004°34'0 0.0
2017-Dec-09 17:58N 48°36' W 004°34'0 0.0
2017-Dec-09 17:28N 48°36' W 004°34'0 0.0
2017-Dec-09 16:50N 48°36' W 004°34'0 0.0
2017-Dec-09 16:29N 48°36' W 004°34'0 0.0
2017-Dec-09 15:56N 48°36' W 004°34'0 0.2
2017-Dec-09 15:29N 48°36' W 004°34'4 7.8
2017-Dec-09 15:01N 48°38' W 004°39'5 9.2
2017-Dec-09 14:30N 48°42' W 004°37'3 6.7
2017-Dec-09 14:00N 48°45' W 004°34'3 6.1
2017-Dec-09 13:30N 48°42' W 004°34'1 1.1
2017-Dec-09 13:00N 48°42' W 004°33'3 5.5
2017-Dec-09 12:30N 48°44' W 004°30'3 6.4
2017-Dec-09 12:00N 48°47' W 004°31'1 1.1
2017-Dec-09 11:30N 48°47' W 004°32'3 5.6
2017-Dec-09 11:00N 48°47' W 004°28'3 6.2
2017-Dec-09 10:30N 48°44' W 004°26'2 4.6
2017-Dec-09 09:59N 48°45' W 004°23'3 5.9
2017-Dec-09 09:30N 48°48' W 004°25'2 3.4
2017-Dec-09 08:59N 48°49' W 004°27'4 3.8
2017-Dec-09 08:03N 48°46' W 004°24'0 3.4
2017-Dec-09 07:56N 48°45' W 004°23'1 3.4
2017-Dec-09 07:31N 48°44' W 004°22'3 6.0
2017-Dec-09 07:01N 48°45' W 004°26'4 6.5
2017-Dec-09 06:22N 48°46' W 004°32'2 6.0
2017-Dec-09 05:59N 48°47' W 004°35'1 1.1
2017-Dec-09 05:30N 48°47' W 004°36'2 4.7
2017-Dec-09 04:59N 48°45' W 004°34'2 4.6
2017-Dec-09 04:29N 48°44' W 004°37'4 7.7
2017-Dec-09 04:00N 48°43' W 004°42'4 7.3
2017-Dec-09 03:30N 48°41' W 004°47'4 7.0
2017-Dec-09 03:00N 48°38' W 004°50'3 6.9
2017-Dec-09 02:30N 48°35' W 004°52'3 6.8
2017-Dec-09 02:00N 48°31' W 004°53'4 7.6
2017-Dec-09 01:31N 48°28' W 004°51'4 7.4
2017-Dec-09 01:00N 48°24' W 004°49'3 6.6
2017-Dec-09 00:30N 48°21' W 004°48'3 6.6
2017-Dec-09 00:00N 48°18' W 004°46'4 7.6
2017-Dec-08 23:31N 48°14' W 004°46'4 7.0
2017-Dec-08 23:01N 48°11' W 004°43'4 8.0
2017-Dec-08 22:31N 48°08' W 004°38'4 7.9
2017-Dec-08 22:01N 48°08' W 004°33'4 8.3
2017-Dec-08 21:30N 48°08' W 004°26'4 7.6
2017-Dec-08 21:00N 48°07' W 004°21'1 2.9
2017-Dec-08 20:31N 48°06' W 004°20'0 0.0
2017-Dec-08 20:00N 48°06' W 004°20'0 0.0
2017-Dec-08 19:30N 48°06' W 004°20'0 0.0
2017-Dec-08 19:00N 48°06' W 004°20'0 0.1
2017-Dec-08 18:30N 48°06' W 004°20'0 0.0
2017-Dec-08 18:00N 48°06' W 004°20'0 0.0
2017-Dec-08 17:30N 48°06' W 004°20'0 0.0
2017-Dec-08 17:00N 48°06' W 004°20'  

Dump ship's entire track history